Última Atualização: 09:50 - 19/09/2020

Estação Hora Leitura 15 min 1 h 4 h 24 h 96 h No Mês
1 Vidigal 09:45 0,0 0,0 0,0 0,0 0,0 5,2
2 Urca 09:45 0,0 0,0 0,0 0,0 0,2 18,4
3 Rocinha 09:45 0,0 0,0 0,0 0,0 8,2 27,4
4 Tijuca 09:45 0,0 0,0 0,0 0,0 8,4 20,6
5 Santa Teresa 09:45 0,0 0,0 0,0 0,0 2,4 4,2
6 Copacabana 09:45 0,0 0,0 0,0 0,0 0,0 0,8
7 Grajaú 09:45 0,0 0,0 0,0 0,0 1,2 7,4
8 Ilha do Governador 09:45 0,0 0,0 0,0 0,0 0,2 1,6
9 Penha 09:45 0,0 0,0 0,0 0,0 0,0 0,8
10 Madureira 09:45 0,0 0,0 0,0 0,0 0,0 0,6
11 Irajá 09:45 0,0 0,0 0,0 0,0 0,0 2,6
12 Bangu 09:45 0,0 0,0 0,0 0,0 0,6 4,6
13 Piedade 09:45 0,0 0,0 0,0 0,0 0,2 3,2
14 Jacarepaguá/Tanque 09:45 0,0 0,0 0,0 0,0 0,0 4,0
15 Saúde 09:45 0,0 0,0 0,0 0,0 0,0 0,8
16 Jardim Botânico 09:45 0,0 0,0 0,0 0,0 0,0 13,4
17 Barra/Barrinha 09:45 0,0 0,0 0,0 0,0 10,0 27,8
18 Jacarepaguá/Cidade de Deus 09:45 0,0 0,0 0,0 0,0 0,0 2,6
19 Barra/Riocentro 09:45 0,0 0,0 0,0 0,0 0,8 14,8
20 Guaratiba 09:45 0,0 0,0 0,0 0,0 0,4 1,6
21 Est. Grajaú/Jacarepaguá 09:45 0,0 0,0 0,0 0,0 0,0 3,8
22 Santa Cruz 09:45 0,0 0,0 0,0 0,0 0,2 0,2
23 Grande Méier 09:45 0,0 0,0 0,0 0,0 0,2 2,2
24 Anchieta 09:45 0,0 0,0 0,0 0,0 0,4 6,4
25 Grota Funda 09:45 0,0 0,0 0,0 0,0 5,4 14,2
26 Campo Grande 09:45 0,0 0,0 0,0 0,0 0,0 0,0
27 Sepetiba 09:45 0,0 0,0 0,0 0,0 0,0 0,6
28 Alto da Boa Vista 09:45 0,0 0,0 0,0 0,0 31,0 95,4
29 Av. Brasil/Mendanha 09:45 0,0 0,0 0,0 0,0 0,6 1,6
30 Recreio dos Bandeirantes 09:45 0,0 0,0 0,0 0,0 1,2 14,8
31 Laranjeiras 09:45 0,0 0,0 0,0 0,0 2,2 5,8
32 São Cristóvão 09:45 0,0 0,0 0,0 0,0 0,6 10,2
33 Tijuca/Muda 09:45 0,0 0,0 0,0 0,0 5,2 19,2
Dados Meteorológicos
Estação Hora Direção Vento (graus) Velocidade Vento (Km/h) Temperatura (celsius) Pressão (hPa) Umidade (%)
1 Vidigal 09:45 360,0 0,0 - - -
11 Irajá 09:45 - - 30,0 - 62,8
16 Jardim Botânico 09:45 - - 27,7 - 80,1
19 Barra/Riocentro 09:45 - - 26,8 - 83,2
20 Guaratiba 09:45 230,4 6,4 25,8 1007,2 99,7
22 Santa Cruz 09:45 - - 27,1 - 82,0
28 Alto da Boa Vista 09:45 - - 27,1 - 82,8
32 São Cristóvão 09:45 189,1 0,0 28,1 1007,3 70,3
100 Teste 06:45 168,9 0,0 - - 50,3